createdAt,value
2017-07-04T00:01:58.239Z,75.30
2017-07-04T00:04:25.794Z,77.10
2017-07-04T00:06:53.399Z,76.30
2017-07-04T00:09:21.730Z,77.20
2017-07-04T00:11:49.294Z,77.10
2017-07-04T00:14:16.882Z,78.30
2017-07-04T00:16:45.227Z,79.40
2017-07-04T00:19:12.802Z,79.00
2017-07-04T00:21:40.356Z,78.30
2017-07-04T00:24:08.087Z,79.60
2017-07-04T00:26:35.698Z,78.10
2017-07-04T00:29:03.274Z,77.90
2017-07-04T00:31:30.839Z,78.10
2017-07-04T00:33:58.428Z,79.20
2017-07-04T00:36:25.990Z,78.40
2017-07-04T00:38:53.550Z,78.70
2017-07-04T00:41:21.146Z,78.50
2017-07-04T00:43:48.698Z,79.20
2017-07-04T00:46:16.278Z,78.70
2017-07-04T00:48:43.879Z,79.50
2017-07-04T00:51:12.300Z,79.80
2017-07-04T00:53:39.882Z,79.80
2017-07-04T00:56:07.463Z,80.20
2017-07-04T00:58:35.060Z,78.40
2017-07-04T01:01:03.387Z,77.90
2017-07-04T01:03:31.088Z,78.00
2017-07-04T01:05:58.670Z,76.20
2017-07-04T01:08:26.986Z,76.00
2017-07-04T01:10:54.567Z,76.00
2017-07-04T01:13:22.120Z,76.10
2017-07-04T01:15:49.709Z,77.50
2017-07-04T01:18:18.248Z,77.00
2017-07-04T01:20:45.864Z,76.40
2017-07-04T01:23:13.410Z,77.10
2017-07-04T01:25:40.962Z,77.10
2017-07-04T01:28:08.640Z,77.80
2017-07-04T01:30:36.250Z,78.50
2017-07-04T01:33:03.822Z,79.20
2017-07-04T01:35:31.593Z,82.70
2017-07-04T01:37:59.169Z,81.10
2017-07-04T01:40:26.733Z,82.60
2017-07-04T01:42:54.333Z,82.10
2017-07-04T01:45:22.789Z,84.10
2017-07-04T01:47:50.350Z,83.60
2017-07-04T01:50:17.930Z,83.90
2017-07-04T01:52:46.250Z,85.20
2017-07-04T01:55:13.810Z,85.30
2017-07-04T01:57:41.418Z,85.50
2017-07-04T02:00:09.092Z,85.80
2017-07-04T02:02:36.709Z,86.20
2017-07-04T02:05:06.009Z,86.50
2017-07-04T02:07:33.638Z,86.50
2017-07-04T02:10:01.207Z,86.90
2017-07-04T02:12:29.594Z,87.00
2017-07-04T02:14:57.247Z,87.00
2017-07-04T02:17:25.602Z,88.30
2017-07-04T02:19:53.179Z,88.30
2017-07-04T02:22:21.530Z,90.10
2017-07-04T02:24:49.086Z,90.10
2017-07-04T02:27:16.781Z,90.30
2017-07-04T02:29:45.131Z,89.90
2017-07-04T02:32:12.692Z,89.20
2017-07-04T02:34:40.253Z,89.50
2017-07-04T02:37:07.843Z,89.60
2017-07-04T02:39:35.414Z,88.70
2017-07-04T02:42:03.926Z,89.40
2017-07-04T02:44:31.502Z,89.40
2017-07-04T02:46:59.086Z,90.00
2017-07-04T02:49:26.639Z,89.40
2017-07-04T02:51:54.215Z,89.90
2017-07-04T02:54:21.791Z,89.70
2017-07-04T02:56:49.348Z,88.20
2017-07-04T02:59:16.934Z,88.80
2017-07-04T03:01:45.318Z,89.40
2017-07-04T03:04:13.643Z,89.00
2017-07-04T03:06:41.330Z,88.80
2017-07-04T03:09:08.902Z,88.90
2017-07-04T03:11:36.478Z,89.10
2017-07-04T03:14:05.166Z,89.30
2017-07-04T03:16:33.514Z,90.00
2017-07-04T03:19:01.091Z,89.80
2017-07-04T03:21:28.663Z,90.20
2017-07-04T03:23:56.993Z,90.50
2017-07-04T03:26:24.565Z,90.50
2017-07-04T03:28:52.161Z,90.70
2017-07-04T03:31:19.733Z,90.50
2017-07-04T03:33:48.132Z,90.80
2017-07-04T03:36:15.722Z,90.80
2017-07-04T03:38:53.221Z,90.90
2017-07-04T03:41:20.792Z,90.80
2017-07-04T03:43:48.371Z,91.40
2017-07-04T03:46:15.954Z,90.70
2017-07-04T03:48:43.518Z,90.60
2017-07-04T03:51:11.910Z,90.00
2017-07-04T03:53:40.266Z,90.10
2017-07-04T03:56:07.834Z,90.10
2017-07-04T03:58:36.331Z,89.20
2017-07-04T04:01:04.670Z,89.70
2017-07-04T04:03:32.229Z,89.10
2017-07-04T04:05:59.839Z,89.30
2017-07-04T04:08:27.565Z,89.90
2017-07-04T04:10:55.145Z,90.20
2017-07-04T04:13:22.729Z,90.00
2017-07-04T04:15:50.293Z,90.00
2017-07-04T04:18:17.887Z,90.90
2017-07-04T04:20:45.496Z,90.00
2017-07-04T04:23:13.110Z,90.70
2017-07-04T04:25:40.712Z,89.80
2017-07-04T04:28:08.299Z,90.20
2017-07-04T04:30:36.718Z,89.50
2017-07-04T04:33:04.273Z,89.40
2017-07-04T04:35:31.821Z,89.90
2017-07-04T04:37:59.383Z,89.30
2017-07-04T04:40:26.962Z,88.40
2017-07-04T04:42:54.551Z,86.50
2017-07-04T04:45:22.111Z,87.00
2017-07-04T04:47:49.673Z,85.40
2017-07-04T04:50:17.490Z,84.50
2017-07-04T04:52:45.106Z,84.50
2017-07-04T04:55:12.691Z,83.90
2017-07-04T04:57:41.046Z,83.60
2017-07-04T05:00:08.638Z,83.00
2017-07-04T05:02:37.164Z,82.50
2017-07-04T05:05:05.367Z,82.50
2017-07-04T05:07:32.946Z,82.20
2017-07-04T05:10:00.513Z,81.60
2017-07-04T05:12:28.113Z,81.30
2017-07-04T05:14:55.679Z,80.80
2017-07-04T05:17:23.386Z,81.00
2017-07-04T05:19:50.974Z,80.00
2017-07-04T05:22:19.297Z,80.30
2017-07-04T05:24:46.885Z,79.90
2017-07-04T05:27:14.448Z,79.10
2017-07-04T05:29:42.001Z,79.10
2017-07-04T05:32:09.591Z,77.60
2017-07-04T05:34:37.143Z,76.80
2017-07-04T05:37:04.725Z,76.20
2017-07-04T05:39:33.143Z,75.00
2017-07-04T05:42:00.735Z,75.00
2017-07-04T05:44:29.367Z,75.40
2017-07-04T05:46:57.699Z,76.10
2017-07-04T05:49:25.290Z,76.10
2017-07-04T05:51:53.057Z,75.90
2017-07-04T05:54:20.633Z,76.10
2017-07-04T05:56:48.979Z,75.80
2017-07-04T05:59:16.560Z,76.40
2017-07-04T06:01:44.137Z,74.80
2017-07-04T06:04:12.464Z,74.10
2017-07-04T06:06:40.027Z,74.00
2017-07-04T06:09:07.620Z,74.10
2017-07-04T06:11:35.186Z,74.30
2017-07-04T06:14:02.759Z,74.10
2017-07-04T06:16:31.106Z,74.40
2017-07-04T06:18:58.783Z,74.10
2017-07-04T06:21:26.348Z,74.00
2017-07-04T06:23:53.920Z,73.80
2017-07-04T06:26:21.469Z,73.80
2017-07-04T06:28:49.046Z,73.40
2017-07-04T06:31:17.509Z,70.40
2017-07-04T06:33:45.218Z,70.30
2017-07-04T06:36:12.941Z,67.40
2017-07-04T06:38:40.502Z,65.90
2017-07-04T06:41:08.245Z,65.80
2017-07-04T06:43:35.807Z,66.40
2017-07-04T06:46:03.366Z,64.60
2017-07-04T06:48:30.967Z,65.40
2017-07-04T06:50:58.517Z,66.10
2017-07-04T06:53:26.200Z,66.30
2017-07-04T06:55:53.730Z,64.90
2017-07-04T06:58:21.632Z,64.50
2017-07-04T07:00:49.970Z,62.70
2017-07-04T07:03:17.541Z,63.50
2017-07-04T07:05:45.113Z,64.10
2017-07-04T07:08:12.693Z,63.60
2017-07-04T07:10:40.255Z,62.70
2017-07-04T07:13:07.822Z,59.70
2017-07-04T07:15:36.296Z,60.80
2017-07-04T07:18:03.840Z,60.50
2017-07-04T07:20:31.414Z,59.10
2017-07-04T07:22:58.998Z,55.60
2017-07-04T07:25:27.337Z,54.30
2017-07-04T07:27:55.023Z,53.70
2017-07-04T07:30:22.604Z,55.10
2017-07-04T07:32:50.955Z,58.90
2017-07-04T07:35:18.514Z,58.90
2017-07-04T07:37:46.143Z,59.90
2017-07-04T07:40:13.699Z,59.70
2017-07-04T07:42:41.267Z,60.00
2017-07-04T07:45:08.845Z,60.40
2017-07-04T07:47:36.481Z,60.40
2017-07-04T07:50:04.054Z,59.50
2017-07-04T07:52:31.603Z,58.80
2017-07-04T07:54:59.313Z,54.70
2017-07-04T07:57:26.868Z,46.20
2017-07-04T07:59:54.431Z,45.30
2017-07-04T08:02:22.030Z,46.40
2017-07-04T08:04:50.370Z,51.60
2017-07-04T08:07:17.922Z,52.10
2017-07-04T08:09:45.499Z,52.50
2017-07-04T08:12:13.050Z,54.40
2017-07-04T08:14:40.699Z,54.80
2017-07-04T08:17:08.310Z,55.40
2017-07-04T08:19:35.930Z,53.80
2017-07-04T08:22:03.530Z,54.20
2017-07-04T08:24:31.088Z,54.00
2017-07-04T08:26:58.832Z,49.00
2017-07-04T08:29:26.389Z,46.90
2017-07-04T08:31:53.958Z,43.10
2017-07-04T08:34:21.515Z,40.80
2017-07-04T08:36:49.182Z,38.40
2017-07-04T08:39:16.818Z,39.00
2017-07-04T08:41:44.371Z,41.60
2017-07-04T08:44:12.714Z,47.50
2017-07-04T08:46:40.384Z,47.40
2017-07-04T08:49:08.063Z,49.40
2017-07-04T08:51:36.585Z,51.20
2017-07-04T08:54:04.163Z,51.30
2017-07-04T08:56:31.895Z,48.00
2017-07-04T08:59:00.248Z,46.50
2017-07-04T09:01:27.974Z,46.50
2017-07-04T09:03:55.553Z,47.80
2017-07-04T09:06:23.170Z,46.50
2017-07-04T09:08:50.908Z,41.50
2017-07-04T09:11:18.517Z,42.80
2017-07-04T09:13:46.193Z,43.30
2017-07-04T09:16:13.926Z,46.70
2017-07-04T09:18:41.588Z,47.70
2017-07-04T09:21:09.931Z,50.10
2017-07-04T09:23:37.522Z,50.10
2017-07-04T09:26:05.847Z,49.40
2017-07-04T09:28:33.441Z,49.40
2017-07-04T09:31:00.990Z,49.80
2017-07-04T09:33:28.584Z,46.90
2017-07-04T09:35:56.924Z,44.30
2017-07-04T09:38:24.473Z,44.00
2017-07-04T09:40:52.045Z,42.60
2017-07-04T09:43:19.590Z,44.50
2017-07-04T09:45:47.170Z,46.20
2017-07-04T09:48:14.734Z,48.40
2017-07-04T09:50:42.303Z,49.60
2017-07-04T09:53:09.865Z,50.30
2017-07-04T09:55:37.452Z,51.60
2017-07-04T09:58:05.030Z,51.80
2017-07-04T10:00:33.351Z,51.70
2017-07-04T10:03:00.950Z,51.00
2017-07-04T10:05:28.512Z,51.30
2017-07-04T10:07:56.107Z,51.10
2017-07-04T10:10:23.666Z,47.80
2017-07-04T10:12:51.983Z,39.60
2017-07-04T10:15:19.663Z,39.50
2017-07-04T10:17:47.304Z,37.70
2017-07-04T10:20:14.914Z,35.80
2017-07-04T10:22:42.507Z,36.30
2017-07-04T10:25:10.095Z,39.10
2017-07-04T10:27:37.646Z,41.50
2017-07-04T10:30:05.229Z,41.10
2017-07-04T10:32:32.807Z,43.20
2017-07-04T10:35:00.374Z,43.80
2017-07-04T10:37:27.938Z,45.20
2017-07-04T10:39:55.523Z,46.70
2017-07-04T10:42:23.110Z,48.00
2017-07-04T10:44:50.742Z,49.10
2017-07-04T10:47:18.392Z,48.60
2017-07-04T10:49:46.034Z,46.50
2017-07-04T10:52:13.602Z,46.40
2017-07-04T10:54:41.187Z,43.30
2017-07-04T10:57:08.751Z,44.20
2017-07-04T10:59:36.326Z,46.50
2017-07-04T11:02:03.904Z,45.60
2017-07-04T11:04:31.470Z,42.60
2017-07-04T11:06:59.799Z,41.10
2017-07-04T11:09:27.384Z,40.90
2017-07-04T11:11:54.955Z,40.50
2017-07-04T11:14:22.524Z,38.30
2017-07-04T11:16:50.097Z,38.20
2017-07-04T11:19:18.418Z,36.30
2017-07-04T11:21:46.074Z,36.20
2017-07-04T11:24:13.724Z,35.60
2017-07-04T11:26:41.353Z,34.90
2017-07-04T11:29:08.924Z,34.90
2017-07-04T11:31:36.490Z,38.10
2017-07-04T11:34:04.972Z,40.80
2017-07-04T11:36:33.268Z,39.80
2017-07-04T11:39:01.613Z,39.90
2017-07-04T11:41:29.158Z,39.80
2017-07-04T11:43:56.766Z,39.40
2017-07-04T11:46:25.083Z,39.30
2017-07-04T11:48:52.731Z,39.40
2017-07-04T11:51:20.347Z,37.80
2017-07-04T11:53:47.917Z,39.30
2017-07-04T11:56:15.563Z,42.70
2017-07-04T11:58:43.157Z,45.20
2017-07-04T12:01:11.529Z,47.20
2017-07-04T12:03:39.166Z,47.80
2017-07-04T12:06:06.787Z,44.50
2017-07-04T12:08:34.371Z,43.30
2017-07-04T12:11:01.975Z,41.50
2017-07-04T12:13:29.551Z,43.00
2017-07-04T12:15:57.989Z,44.40
2017-07-04T12:18:25.552Z,43.90
2017-07-04T12:20:53.168Z,42.10
2017-07-04T12:23:20.768Z,41.00
2017-07-04T12:25:48.318Z,40.70
2017-07-04T12:28:15.929Z,41.70
2017-07-04T12:30:43.626Z,44.20
2017-07-04T12:33:11.193Z,45.70
2017-07-04T12:35:38.781Z,46.50
2017-07-04T12:38:06.411Z,45.30
2017-07-04T12:40:34.762Z,41.80
2017-07-04T12:43:02.327Z,41.70
2017-07-04T12:45:29.933Z,39.70
2017-07-04T12:47:58.259Z,38.80
2017-07-04T12:50:25.826Z,38.80
2017-07-04T12:52:53.411Z,39.60
2017-07-04T12:55:20.975Z,38.10
2017-07-04T12:57:48.547Z,38.70
2017-07-04T13:00:16.903Z,38.40
2017-07-04T13:02:44.503Z,37.90
2017-07-04T13:05:12.105Z,38.40
2017-07-04T13:07:39.860Z,39.20
2017-07-04T13:10:07.525Z,38.70
2017-07-04T13:12:35.133Z,40.50
2017-07-04T13:15:02.711Z,40.90
2017-07-04T13:17:31.124Z,39.40
2017-07-04T13:19:58.685Z,39.70
2017-07-04T13:22:26.626Z,39.60
2017-07-04T13:24:55.071Z,38.60
2017-07-04T13:27:22.622Z,38.60
2017-07-04T13:29:50.206Z,37.40
2017-07-04T13:32:17.798Z,37.30
2017-07-04T13:34:45.448Z,37.50
2017-07-04T13:37:13.007Z,37.20
2017-07-04T13:39:40.838Z,37.60
2017-07-04T13:42:08.403Z,38.30
2017-07-04T13:44:36.033Z,37.10
2017-07-04T13:47:03.658Z,37.40
2017-07-04T13:49:31.219Z,37.10
2017-07-04T13:51:58.794Z,36.10
2017-07-04T13:54:26.372Z,36.20
2017-07-04T13:56:54.707Z,37.20
2017-07-04T13:59:22.295Z,37.80
2017-07-04T14:01:49.872Z,37.50
2017-07-04T14:04:17.458Z,37.90
2017-07-04T14:06:45.047Z,38.70
2017-07-04T14:09:12.624Z,39.40
2017-07-04T14:11:40.222Z,38.90
2017-07-04T14:14:07.815Z,37.70
2017-07-04T14:16:35.512Z,37.40
2017-07-04T14:19:03.134Z,37.40
2017-07-04T14:21:31.478Z,36.80
2017-07-04T14:23:59.110Z,36.70
2017-07-04T14:26:26.669Z,36.00
2017-07-04T14:28:54.273Z,35.00
2017-07-04T14:31:21.823Z,34.50
2017-07-04T14:33:49.404Z,35.50
2017-07-04T14:36:16.990Z,36.70
2017-07-04T14:38:44.559Z,35.80
2017-07-04T14:41:12.930Z,36.80
2017-07-04T14:43:41.047Z,36.70
2017-07-04T14:46:08.715Z,35.00
2017-07-04T14:48:36.347Z,35.40
2017-07-04T14:51:03.950Z,35.30
2017-07-04T14:53:31.511Z,35.20
2017-07-04T14:55:59.084Z,33.40
2017-07-04T14:58:26.669Z,35.10
2017-07-04T15:00:54.235Z,37.30
2017-07-04T15:03:21.801Z,36.90
2017-07-04T15:05:49.432Z,36.40
2017-07-04T15:08:17.020Z,35.80
2017-07-04T15:10:44.575Z,34.90
2017-07-04T15:13:12.155Z,34.60
2017-07-04T15:15:40.482Z,38.30
2017-07-04T15:18:08.114Z,38.20
2017-07-04T15:20:35.732Z,37.60
2017-07-04T15:23:03.306Z,38.00
2017-07-04T15:25:30.875Z,38.60
2017-07-04T15:27:58.458Z,39.30
2017-07-04T15:30:26.809Z,38.60
2017-07-04T15:32:54.427Z,38.50
2017-07-04T15:35:21.998Z,39.40
2017-07-04T15:37:49.581Z,38.40
2017-07-04T15:40:17.151Z,38.60
2017-07-04T15:42:44.729Z,38.20
2017-07-04T15:45:12.400Z,37.90
2017-07-04T15:47:40.002Z,37.80
2017-07-04T15:50:07.581Z,37.40
2017-07-04T15:52:35.141Z,38.10
2017-07-04T15:55:02.745Z,38.30
2017-07-04T15:57:30.323Z,38.70
2017-07-04T15:59:57.892Z,38.90
2017-07-04T16:02:26.223Z,37.60
2017-07-04T16:04:53.979Z,37.60
2017-07-04T16:07:21.569Z,37.80
2017-07-04T16:09:49.134Z,37.50
2017-07-04T16:12:16.738Z,38.40
2017-07-04T16:14:45.072Z,38.40
2017-07-04T16:17:12.650Z,38.40
2017-07-04T16:19:40.238Z,37.60
2017-07-04T16:22:08.566Z,38.50
2017-07-04T16:24:36.124Z,38.50
2017-07-04T16:27:03.714Z,38.30
2017-07-04T16:29:31.347Z,38.80
2017-07-04T16:31:58.940Z,39.40
2017-07-04T16:34:26.495Z,39.00
2017-07-04T16:36:54.078Z,39.40
2017-07-04T16:39:21.654Z,40.00
2017-07-04T16:41:49.979Z,38.90
2017-07-04T16:44:17.581Z,38.90
2017-07-04T16:46:45.176Z,39.10
2017-07-04T16:49:12.775Z,40.10
2017-07-04T16:51:40.334Z,39.40
2017-07-04T16:54:07.923Z,40.50
2017-07-04T16:56:35.476Z,40.40
2017-07-04T16:59:03.063Z,40.00
2017-07-04T17:01:30.634Z,39.70
2017-07-04T17:03:58.240Z,40.20
2017-07-04T17:06:25.884Z,41.00
2017-07-04T17:08:53.467Z,41.00
2017-07-04T17:11:21.059Z,41.90
2017-07-04T17:13:48.702Z,41.40
2017-07-04T17:16:16.277Z,42.40
2017-07-04T17:18:43.846Z,42.60
2017-07-04T17:21:11.427Z,43.00
2017-07-04T17:23:39.074Z,43.70
2017-07-04T17:26:06.654Z,44.40
2017-07-04T17:28:34.219Z,44.40
2017-07-04T17:31:01.802Z,45.00
2017-07-04T17:33:29.361Z,45.40
2017-07-04T17:35:56.895Z,45.20
2017-07-04T17:38:24.476Z,45.80
2017-07-04T17:40:52.079Z,45.60
2017-07-04T17:43:19.735Z,45.50
2017-07-04T17:45:47.314Z,46.90
2017-07-04T17:48:14.888Z,47.60
2017-07-04T17:50:42.434Z,47.40
2017-07-04T17:53:10.002Z,47.80
2017-07-04T17:55:37.590Z,48.40
2017-07-04T17:58:05.205Z,47.70
2017-07-04T18:00:34.383Z,47.70
2017-07-04T18:03:02.732Z,47.50
2017-07-04T18:05:30.326Z,47.40
2017-07-04T18:07:57.942Z,47.90
2017-07-04T18:10:25.558Z,47.80
2017-07-04T18:12:53.082Z,48.10
2017-07-04T18:15:20.682Z,48.40
2017-07-04T18:17:48.249Z,48.10
2017-07-04T18:20:15.818Z,48.60
2017-07-04T18:22:44.254Z,49.20
2017-07-04T18:25:11.838Z,49.10
2017-07-04T18:27:39.470Z,49.50
2017-07-04T18:30:07.035Z,50.30
2017-07-04T18:32:34.616Z,50.50
2017-07-04T18:35:02.194Z,51.40
2017-07-04T18:37:29.787Z,51.60
2017-07-04T18:39:58.119Z,52.40
2017-07-04T18:42:25.699Z,52.40
2017-07-04T18:44:53.291Z,52.80
2017-07-04T18:47:21.610Z,53.90
2017-07-04T18:49:49.394Z,53.90
2017-07-04T18:52:16.981Z,53.10
2017-07-04T18:54:44.574Z,54.00
2017-07-04T18:57:12.931Z,55.00
2017-07-04T18:59:41.339Z,55.80
2017-07-04T19:02:08.928Z,55.70
2017-07-04T19:04:36.498Z,55.70
2017-07-04T19:07:04.096Z,56.40
2017-07-04T19:09:31.699Z,56.70
2017-07-04T19:11:59.281Z,57.40
2017-07-04T19:14:26.859Z,57.70
2017-07-04T19:16:54.450Z,58.10
2017-07-04T19:19:22.032Z,58.50
2017-07-04T19:21:50.360Z,59.30
2017-07-04T19:24:17.962Z,59.30
2017-07-04T19:26:46.293Z,58.70
2017-07-04T19:29:13.900Z,58.60
2017-07-04T19:31:41.459Z,58.80
2017-07-04T19:34:09.050Z,58.90
2017-07-04T19:36:37.390Z,60.30
2017-07-04T19:39:04.967Z,60.20
2017-07-04T19:41:32.549Z,60.30
2017-07-04T19:44:00.150Z,60.80
2017-07-04T19:46:27.734Z,61.20
2017-07-04T19:48:55.304Z,61.00
2017-07-04T19:51:22.926Z,61.20
2017-07-04T19:53:50.483Z,61.70
2017-07-04T19:56:18.062Z,62.00
2017-07-04T19:58:45.697Z,62.10
2017-07-04T20:01:14.034Z,62.80
2017-07-04T20:03:41.869Z,62.80
2017-07-04T20:06:09.483Z,63.10
2017-07-04T20:08:37.047Z,63.90
2017-07-04T20:11:04.635Z,64.30
2017-07-04T20:13:32.250Z,64.90
2017-07-04T20:15:59.912Z,65.10
2017-07-04T20:18:27.527Z,65.00
2017-07-04T20:20:55.165Z,63.90
2017-07-04T20:23:23.516Z,64.70
2017-07-04T20:25:51.119Z,64.50
2017-07-04T20:28:19.535Z,64.90
2017-07-04T20:30:47.157Z,64.90
2017-07-04T20:33:15.504Z,63.70
2017-07-04T20:35:43.159Z,63.70
2017-07-04T20:38:10.883Z,65.80
2017-07-04T20:40:38.486Z,67.10
2017-07-04T20:43:06.151Z,66.10
2017-07-04T20:45:33.711Z,65.60
2017-07-04T20:48:01.328Z,65.80
2017-07-04T20:50:29.429Z,66.80
2017-07-04T20:52:57.116Z,67.00
2017-07-04T20:55:24.698Z,70.90
2017-07-04T20:57:52.278Z,70.00
2017-07-04T21:00:20.049Z,70.00
2017-07-04T21:02:47.650Z,71.20
2017-07-04T21:05:15.218Z,72.00
2017-07-04T21:07:42.818Z,72.40
2017-07-04T21:10:10.403Z,73.80
2017-07-04T21:12:38.759Z,73.30
2017-07-04T21:15:06.338Z,73.30
2017-07-04T21:17:34.892Z,74.10
2017-07-04T21:20:03.244Z,74.10
2017-07-04T21:22:31.017Z,73.70
2017-07-04T21:24:58.739Z,74.70
2017-07-04T21:27:27.114Z,75.60
2017-07-04T21:29:55.789Z,75.10
2017-07-04T21:32:23.416Z,75.00
2017-07-04T21:34:51.122Z,74.90
2017-07-04T21:37:18.753Z,75.70
2017-07-04T21:39:46.381Z,75.90
2017-07-04T21:42:13.971Z,75.80
2017-07-04T21:44:42.347Z,77.20
2017-07-04T21:47:10.779Z,77.60
2017-07-04T21:49:38.413Z,77.60
2017-07-04T21:52:05.995Z,77.90
2017-07-04T21:54:33.684Z,78.60
2017-07-04T21:57:01.336Z,78.30
2017-07-04T21:59:28.905Z,78.10
2017-07-04T22:01:56.524Z,78.30
2017-07-04T22:04:24.160Z,79.00
2017-07-04T22:06:51.720Z,79.20
2017-07-04T22:09:19.309Z,78.10
2017-07-04T22:11:46.871Z,79.10
2017-07-04T22:14:14.439Z,80.10
2017-07-04T22:16:42.130Z,80.40
2017-07-04T22:19:09.793Z,80.70
2017-07-04T22:21:37.407Z,81.00
2017-07-04T22:24:05.774Z,82.60
2017-07-04T22:26:33.367Z,82.20
2017-07-04T22:29:01.668Z,83.40
2017-07-04T22:31:29.419Z,84.50
2017-07-04T22:33:57.510Z,85.10
2017-07-04T22:36:25.173Z,84.20
2017-07-04T22:38:52.778Z,84.60
2017-07-04T22:41:20.616Z,85.80
2017-07-04T22:43:48.573Z,85.80
2017-07-04T22:46:16.323Z,86.00
2017-07-04T22:48:44.133Z,86.40
2017-07-04T22:51:11.872Z,86.90
2017-07-04T22:53:39.941Z,86.30
2017-07-04T22:56:07.818Z,86.90
2017-07-04T22:58:35.572Z,88.00
2017-07-04T23:01:03.340Z,87.40
2017-07-04T23:03:31.242Z,87.60
2017-07-04T23:05:59.107Z,88.20
2017-07-04T23:08:27.069Z,88.80
2017-07-04T23:10:55.213Z,88.10
2017-07-04T23:13:23.946Z,86.90
2017-07-04T23:15:51.785Z,87.60
2017-07-04T23:18:19.640Z,87.40
2017-07-04T23:20:48.254Z,87.40
2017-07-04T23:23:15.983Z,87.30
2017-07-04T23:25:44.610Z,85.00
2017-07-04T23:28:12.463Z,85.00
2017-07-04T23:30:40.359Z,86.60
2017-07-04T23:33:08.127Z,87.20
2017-07-04T23:35:35.988Z,86.80
2017-07-04T23:38:04.675Z,84.70
2017-07-04T23:40:32.333Z,84.70
2017-07-04T23:42:59.941Z,85.90
2017-07-04T23:45:28.295Z,87.50
2017-07-04T23:47:55.934Z,87.50
2017-07-04T23:50:23.597Z,88.20
2017-07-04T23:52:51.184Z,87.70
2017-07-04T23:55:18.751Z,88.00
2017-07-04T23:57:46.339Z,88.80
